createdAt,value
2019-03-28T00:00:49.096Z,8.60
2019-03-28T00:03:18.518Z,8.70
2019-03-28T00:05:47.971Z,8.70
2019-03-28T00:08:17.344Z,8.70
2019-03-28T00:10:46.750Z,8.70
2019-03-28T00:13:16.202Z,8.60
2019-03-28T00:15:45.738Z,8.60
2019-03-28T00:18:15.112Z,8.60
2019-03-28T00:20:44.562Z,8.60
2019-03-28T00:23:28.383Z,8.60
2019-03-28T00:25:57.824Z,8.60
2019-03-28T00:28:27.225Z,8.60
2019-03-28T00:30:56.664Z,8.60
2019-03-28T00:33:26.032Z,8.50
2019-03-28T00:35:55.482Z,8.50
2019-03-28T00:38:25.198Z,8.50
2019-03-28T00:40:55.161Z,8.40
2019-03-28T00:43:25.260Z,8.50
2019-03-28T00:45:54.848Z,8.50
2019-03-28T00:48:24.219Z,8.60
2019-03-28T00:50:53.594Z,8.50
2019-03-28T00:53:22.980Z,8.60
2019-03-28T00:55:52.500Z,8.50
2019-03-28T00:58:21.878Z,8.60
2019-03-28T01:00:51.403Z,8.50
2019-03-28T01:03:20.815Z,8.50
2019-03-28T01:05:50.255Z,8.40
2019-03-28T01:08:19.692Z,8.40
2019-03-28T01:10:49.084Z,8.40
2019-03-28T01:13:18.463Z,8.50
2019-03-28T01:15:47.838Z,8.40
2019-03-28T01:18:17.205Z,8.50
2019-03-28T01:20:46.655Z,8.50
2019-03-28T01:23:16.093Z,8.50
2019-03-28T01:25:45.544Z,8.40
2019-03-28T01:28:14.985Z,8.50
2019-03-28T01:30:44.398Z,8.50
2019-03-28T01:33:13.775Z,8.50
2019-03-28T01:35:43.147Z,8.50
2019-03-28T01:38:12.603Z,8.50
2019-03-28T01:40:42.216Z,8.50
2019-03-28T01:43:11.732Z,8.50
2019-03-28T01:45:41.187Z,8.50
2019-03-28T01:48:10.612Z,8.50
2019-03-28T01:50:40.080Z,8.50
2019-03-28T01:53:09.518Z,8.50
2019-03-28T01:55:39.060Z,8.50
2019-03-28T01:58:08.605Z,8.50
2019-03-28T02:00:38.358Z,8.50
2019-03-28T02:03:08.022Z,8.50
2019-03-28T02:05:37.444Z,8.40
2019-03-28T02:08:06.855Z,8.40
2019-03-28T02:10:36.494Z,8.50
2019-03-28T02:13:05.953Z,8.50
2019-03-28T02:15:35.467Z,8.50
2019-03-28T02:18:04.923Z,8.50
2019-03-28T02:20:34.308Z,8.50
2019-03-28T02:23:03.826Z,8.50
2019-03-28T02:25:33.228Z,8.40
2019-03-28T02:28:02.681Z,8.40
2019-03-28T02:30:33.447Z,8.40
2019-03-28T02:33:03.350Z,8.40
2019-03-28T02:35:32.841Z,8.40
2019-03-28T02:38:02.300Z,8.40
2019-03-28T02:40:31.785Z,8.40
2019-03-28T02:43:01.172Z,8.40
2019-03-28T02:45:30.549Z,8.30
2019-03-28T02:48:00.092Z,8.30
2019-03-28T02:50:29.621Z,8.30
2019-03-28T02:52:59.079Z,8.30
2019-03-28T02:55:28.599Z,8.30
2019-03-28T02:57:58.113Z,8.30
2019-03-28T03:00:27.469Z,8.20
2019-03-28T03:02:57.054Z,8.30
2019-03-28T03:05:26.729Z,8.20
2019-03-28T03:07:56.169Z,8.20
2019-03-28T03:10:25.566Z,8.20
2019-03-28T03:12:55.017Z,8.20
2019-03-28T03:15:24.367Z,8.20
2019-03-28T03:17:53.759Z,8.20
2019-03-28T03:20:23.119Z,8.20
2019-03-28T03:22:52.493Z,8.20
2019-03-28T03:25:21.855Z,8.20
2019-03-28T03:27:58.421Z,8.10
2019-03-28T03:30:22.482Z,8.10
2019-03-28T03:32:52.007Z,8.10
2019-03-28T03:35:21.758Z,8.00
2019-03-28T03:37:51.391Z,8.00
2019-03-28T03:40:20.902Z,8.10
2019-03-28T03:42:50.282Z,8.10
2019-03-28T03:45:19.649Z,8.10
2019-03-28T03:47:49.115Z,8.10
2019-03-28T03:50:27.658Z,7.90
2019-03-28T03:52:57.270Z,7.90
2019-03-28T03:55:26.697Z,8.00
2019-03-28T03:58:13.288Z,7.90
2019-03-28T04:00:34.830Z,7.90
2019-03-28T04:03:04.448Z,7.90
2019-03-28T04:05:33.972Z,7.90
2019-03-28T04:08:03.518Z,7.80
2019-03-28T04:10:33.067Z,7.80
2019-03-28T04:13:02.604Z,7.80
2019-03-28T04:15:32.039Z,7.80
2019-03-28T04:18:01.423Z,7.70
2019-03-28T04:20:31.014Z,7.70
2019-03-28T04:23:00.404Z,7.80
2019-03-28T04:25:29.858Z,7.80
2019-03-28T04:27:59.312Z,7.80
2019-03-28T04:30:28.685Z,7.70
2019-03-28T04:32:58.215Z,7.70
2019-03-28T04:35:27.743Z,7.70
2019-03-28T04:37:57.283Z,7.70
2019-03-28T04:40:26.725Z,7.90
2019-03-28T04:42:56.106Z,7.70
2019-03-28T04:45:25.552Z,7.60
2019-03-28T04:47:55.073Z,7.60
2019-03-28T04:50:24.527Z,7.50
2019-03-28T04:52:53.979Z,7.50
2019-03-28T04:55:23.445Z,7.40
2019-03-28T04:57:52.885Z,7.40
2019-03-28T05:00:22.425Z,7.40
2019-03-28T05:02:51.948Z,7.40
2019-03-28T05:05:21.405Z,7.40
2019-03-28T05:07:53.784Z,7.30
2019-03-28T05:10:23.251Z,7.30
2019-03-28T05:12:52.614Z,7.30
2019-03-28T05:15:22.063Z,7.30
2019-03-28T05:17:51.426Z,7.30
2019-03-28T05:20:20.890Z,7.30
2019-03-28T05:22:50.388Z,7.40
2019-03-28T05:25:19.763Z,7.30
2019-03-28T05:27:49.128Z,7.30
2019-03-28T05:30:18.689Z,7.30
2019-03-28T05:32:48.051Z,7.30
2019-03-28T05:35:17.431Z,7.40
2019-03-28T05:37:46.793Z,7.40
2019-03-28T05:40:16.451Z,7.40
2019-03-28T05:42:45.887Z,7.40
2019-03-28T05:45:15.369Z,7.40
2019-03-28T05:47:44.809Z,7.40
2019-03-28T05:50:14.426Z,7.40
2019-03-28T05:52:43.877Z,7.40
2019-03-28T05:55:13.412Z,7.40
2019-03-28T05:57:42.773Z,7.40
2019-03-28T06:00:12.556Z,7.40
2019-03-28T06:02:41.938Z,7.50
2019-03-28T06:05:11.548Z,7.50
2019-03-28T06:07:40.919Z,7.50
2019-03-28T06:10:10.845Z,7.50
2019-03-28T06:12:40.229Z,7.50
2019-03-28T06:15:10.470Z,7.60
2019-03-28T06:17:39.812Z,7.60
2019-03-28T06:20:10.203Z,7.70
2019-03-28T06:22:39.857Z,7.70
2019-03-28T06:25:09.582Z,7.70
2019-03-28T06:27:39.015Z,7.90
2019-03-28T06:30:09.883Z,7.90
2019-03-28T06:32:43.317Z,7.90
2019-03-28T06:35:10.827Z,8.00
2019-03-28T06:37:40.249Z,8.00
2019-03-28T06:40:09.767Z,8.20
2019-03-28T06:42:39.314Z,8.20
2019-03-28T06:45:08.847Z,8.20
2019-03-28T06:47:38.291Z,8.30
2019-03-28T06:50:08.523Z,8.30
2019-03-28T06:52:38.106Z,8.30
2019-03-28T06:55:07.803Z,8.40
2019-03-28T06:57:37.197Z,8.40
2019-03-28T07:00:08.376Z,8.30
2019-03-28T07:02:37.903Z,8.30
2019-03-28T07:05:07.790Z,8.30
2019-03-28T07:07:37.244Z,8.30
2019-03-28T07:10:07.160Z,8.30
2019-03-28T07:12:36.529Z,8.40
2019-03-28T07:15:06.321Z,8.40
2019-03-28T07:17:35.786Z,8.50
2019-03-28T07:20:08.977Z,8.50
2019-03-28T07:22:38.135Z,8.50
2019-03-28T07:25:07.955Z,8.50
2019-03-28T07:27:37.329Z,8.50
2019-03-28T07:30:07.992Z,8.60
2019-03-28T07:32:37.403Z,8.60
2019-03-28T07:35:06.934Z,8.60
2019-03-28T07:37:36.478Z,8.70
2019-03-28T07:40:07.036Z,8.70
2019-03-28T07:42:36.479Z,8.80
2019-03-28T07:45:06.796Z,8.70
2019-03-28T07:47:36.301Z,8.80
2019-03-28T07:50:06.426Z,8.90
2019-03-28T07:52:35.885Z,9.00
2019-03-28T07:55:06.971Z,9.20
2019-03-28T07:57:36.340Z,9.40
2019-03-28T08:00:07.331Z,9.50
2019-03-28T08:02:36.707Z,9.60
2019-03-28T08:05:07.662Z,9.60
2019-03-28T08:07:44.936Z,9.60
2019-03-28T08:10:08.828Z,9.80
2019-03-28T08:12:38.395Z,9.90
2019-03-28T08:15:08.674Z,10.00
2019-03-28T08:17:38.085Z,10.10
2019-03-28T08:20:07.923Z,10.30
2019-03-28T08:22:37.473Z,10.40
2019-03-28T08:25:11.179Z,10.50
2019-03-28T08:27:38.580Z,10.60
2019-03-28T08:30:18.279Z,10.70
2019-03-28T08:32:40.084Z,10.80
2019-03-28T08:35:10.457Z,11.10
2019-03-28T08:37:40.999Z,11.20
2019-03-28T08:40:11.003Z,11.50
2019-03-28T08:42:40.366Z,11.60
2019-03-28T08:45:10.535Z,11.90
2019-03-28T08:47:39.918Z,12.00
2019-03-28T08:50:09.431Z,12.20
2019-03-28T08:52:38.876Z,12.40
2019-03-28T08:55:10.066Z,12.60
2019-03-28T08:57:39.756Z,12.90
2019-03-28T09:00:11.421Z,13.00
2019-03-28T09:02:40.894Z,13.30
2019-03-28T09:05:10.416Z,13.40
2019-03-28T09:07:40.025Z,13.70
2019-03-28T09:10:09.734Z,13.80
2019-03-28T09:12:39.175Z,13.70
2019-03-28T09:15:09.643Z,13.60
2019-03-28T09:17:39.091Z,13.50
2019-03-28T09:20:09.296Z,13.80
2019-03-28T09:22:39.178Z,13.90
2019-03-28T09:25:08.887Z,14.00
2019-03-28T09:27:38.643Z,14.10
2019-03-28T09:30:08.490Z,14.30
2019-03-28T09:32:38.301Z,14.70
2019-03-28T09:35:09.482Z,15.10
2019-03-28T09:37:38.924Z,15.30
2019-03-28T09:40:08.482Z,15.20
2019-03-28T09:42:37.867Z,15.00
2019-03-28T09:45:07.690Z,15.20
2019-03-28T09:47:37.054Z,15.50
2019-03-28T09:50:06.635Z,15.80
2019-03-28T09:52:35.996Z,16.00
2019-03-28T09:55:05.574Z,16.10
2019-03-28T09:57:34.914Z,16.00
2019-03-28T10:00:04.910Z,16.10
2019-03-28T10:02:34.363Z,16.30
2019-03-28T10:05:03.902Z,16.40
2019-03-28T10:07:33.266Z,16.30
2019-03-28T10:10:03.089Z,16.50
2019-03-28T10:12:34.244Z,16.60
2019-03-28T10:15:03.924Z,16.90
2019-03-28T10:17:33.374Z,17.10
2019-03-28T10:20:02.826Z,17.00
2019-03-28T10:22:32.176Z,16.50
2019-03-28T10:25:01.560Z,16.70
2019-03-28T10:27:30.911Z,17.00
2019-03-28T10:30:00.489Z,17.30
2019-03-28T10:32:30.666Z,17.00
2019-03-28T10:35:00.072Z,16.70
2019-03-28T10:37:29.526Z,16.50
2019-03-28T10:39:58.971Z,16.70
2019-03-28T10:42:28.428Z,16.70
2019-03-28T10:44:57.896Z,16.40
2019-03-28T10:47:27.595Z,16.30
2019-03-28T10:49:57.069Z,15.80
2019-03-28T10:52:26.438Z,15.60
2019-03-28T10:54:55.849Z,15.70
2019-03-28T10:57:29.805Z,15.80
2019-03-28T10:59:56.387Z,15.50
2019-03-28T11:02:28.649Z,15.20
2019-03-28T11:04:56.852Z,14.90
2019-03-28T11:07:26.241Z,14.70
2019-03-28T11:09:55.695Z,15.40
2019-03-28T11:12:25.055Z,15.70
2019-03-28T11:14:54.465Z,15.50
2019-03-28T11:17:24.053Z,15.20
2019-03-28T11:19:55.965Z,14.80
2019-03-28T11:22:24.580Z,14.60
2019-03-28T11:24:53.954Z,14.30
2019-03-28T11:27:23.655Z,14.10
2019-03-28T11:29:53.259Z,13.90
2019-03-28T11:32:22.622Z,13.80
2019-03-28T11:34:52.155Z,13.70
2019-03-28T11:37:26.270Z,13.60
2019-03-28T11:39:52.716Z,13.60
2019-03-28T11:42:22.189Z,13.50
2019-03-28T11:44:51.649Z,13.50
2019-03-28T11:47:22.403Z,13.50
2019-03-28T11:49:52.362Z,13.40
2019-03-28T11:52:21.744Z,13.30
2019-03-28T11:54:51.210Z,13.40
2019-03-28T11:57:20.647Z,13.30
2019-03-28T11:59:50.115Z,13.30
2019-03-28T12:02:20.639Z,13.30
2019-03-28T12:04:50.219Z,13.30
2019-03-28T12:07:19.611Z,13.20
2019-03-28T12:09:49.055Z,13.20
2019-03-28T12:12:18.559Z,13.20
2019-03-28T12:14:47.931Z,13.30
2019-03-28T12:17:17.323Z,13.40
2019-03-28T12:19:46.745Z,13.50
2019-03-28T12:22:16.129Z,13.70
2019-03-28T12:24:45.479Z,13.90
2019-03-28T12:27:14.940Z,13.90
2019-03-28T12:29:46.084Z,13.90
2019-03-28T12:32:15.485Z,13.90
2019-03-28T12:34:44.994Z,13.90
2019-03-28T12:37:14.447Z,13.80
2019-03-28T12:39:43.889Z,13.80
2019-03-28T12:42:13.259Z,13.70
2019-03-28T12:44:56.025Z,13.70
2019-03-28T12:47:13.798Z,13.70
2019-03-28T12:49:43.155Z,13.80
2019-03-28T12:52:12.527Z,13.70
2019-03-28T12:54:44.178Z,13.70
2019-03-28T12:57:14.573Z,13.70
2019-03-28T12:59:44.166Z,13.70
2019-03-28T13:02:26.908Z,13.60
2019-03-28T13:04:44.796Z,13.50
2019-03-28T13:07:14.346Z,13.50
2019-03-28T13:09:43.799Z,13.40
2019-03-28T13:12:13.187Z,13.30
2019-03-28T13:14:42.552Z,13.30
2019-03-28T13:17:11.916Z,13.30
2019-03-28T13:19:41.276Z,13.20
2019-03-28T13:22:10.778Z,13.20
2019-03-28T13:24:40.170Z,13.20
2019-03-28T13:27:09.598Z,13.20
2019-03-28T13:29:38.975Z,13.10
2019-03-28T13:32:08.328Z,13.10
2019-03-28T13:34:37.692Z,13.00
2019-03-28T13:37:07.053Z,13.00
2019-03-28T13:39:36.439Z,12.90
2019-03-28T13:42:05.796Z,13.00
2019-03-28T13:44:35.329Z,13.00
2019-03-28T13:47:04.859Z,13.00
2019-03-28T13:49:34.231Z,13.00
2019-03-28T13:52:03.655Z,13.00
2019-03-28T13:54:33.171Z,13.00
2019-03-28T13:57:02.522Z,13.00
2019-03-28T13:59:35.245Z,13.00
2019-03-28T14:02:03.158Z,13.00
2019-03-28T14:04:32.538Z,13.00
2019-03-28T14:07:01.896Z,13.00
2019-03-28T14:09:31.295Z,13.00
2019-03-28T14:12:00.647Z,12.90
2019-03-28T14:14:30.086Z,12.90
2019-03-28T14:16:59.519Z,12.90
2019-03-28T14:19:28.978Z,13.00
2019-03-28T14:21:58.339Z,13.00
2019-03-28T14:24:27.891Z,13.00
2019-03-28T14:26:57.247Z,12.90
2019-03-28T14:29:29.797Z,12.80
2019-03-28T14:31:59.880Z,12.80
2019-03-28T14:34:28.913Z,12.90
2019-03-28T14:36:58.353Z,12.80
2019-03-28T14:39:27.816Z,12.80
2019-03-28T14:41:57.187Z,12.90
2019-03-28T14:44:26.831Z,12.80
2019-03-28T14:46:56.356Z,12.80
2019-03-28T14:49:25.871Z,12.80
2019-03-28T14:51:55.287Z,12.90
2019-03-28T14:54:24.741Z,12.80
2019-03-28T14:56:55.294Z,12.80
2019-03-28T14:59:32.342Z,12.80
2019-03-28T15:01:56.234Z,12.80
2019-03-28T15:04:25.615Z,12.90
2019-03-28T15:06:54.972Z,12.90
2019-03-28T15:09:24.431Z,12.90
2019-03-28T15:11:53.875Z,12.90
2019-03-28T15:14:23.278Z,12.80
2019-03-28T15:16:52.784Z,12.80
2019-03-28T15:19:22.126Z,12.80
2019-03-28T15:21:51.587Z,12.80
2019-03-28T15:24:21.006Z,12.70
2019-03-28T15:26:50.421Z,12.70
2019-03-28T15:29:19.926Z,12.70
2019-03-28T15:31:49.294Z,12.70
2019-03-28T15:34:18.654Z,12.70
2019-03-28T15:36:48.027Z,12.70
2019-03-28T15:39:17.386Z,12.70
2019-03-28T15:41:46.903Z,12.70
2019-03-28T15:44:16.439Z,12.60
2019-03-28T15:46:45.898Z,12.60
2019-03-28T15:49:15.354Z,12.60
2019-03-28T15:51:44.742Z,12.60
2019-03-28T15:54:14.105Z,12.70
2019-03-28T15:56:43.546Z,12.60
2019-03-28T15:59:12.920Z,12.70
2019-03-28T16:01:42.389Z,12.70
2019-03-28T16:04:11.810Z,12.70
2019-03-28T16:06:41.554Z,12.70
2019-03-28T16:09:11.208Z,12.60
2019-03-28T16:11:40.645Z,12.60
2019-03-28T16:14:10.011Z,12.60
2019-03-28T16:16:39.427Z,12.60
2019-03-28T16:19:08.787Z,12.60
2019-03-28T16:21:38.250Z,12.60
2019-03-28T16:24:07.682Z,12.60
2019-03-28T16:26:37.063Z,12.50
2019-03-28T16:29:07.336Z,12.50
2019-03-28T16:31:37.047Z,12.50
2019-03-28T16:34:07.532Z,12.40
2019-03-28T16:36:37.040Z,12.40
2019-03-28T16:39:07.683Z,12.30
2019-03-28T16:41:37.220Z,12.30
2019-03-28T16:44:06.758Z,12.30
2019-03-28T16:46:36.144Z,12.20
2019-03-28T16:49:05.797Z,12.20
2019-03-28T16:51:35.432Z,12.20
2019-03-28T16:54:04.951Z,12.20
2019-03-28T16:56:34.407Z,12.20
2019-03-28T16:59:03.990Z,12.10
2019-03-28T17:01:34.034Z,12.10
2019-03-28T17:04:03.814Z,12.00
2019-03-28T17:06:33.869Z,12.00
2019-03-28T17:09:05.443Z,12.00
2019-03-28T17:11:35.399Z,11.90
2019-03-28T17:14:05.071Z,11.90
2019-03-28T17:16:34.439Z,11.90
2019-03-28T17:19:03.912Z,11.90
2019-03-28T17:21:33.366Z,11.90
2019-03-28T17:24:02.821Z,11.90
2019-03-28T17:26:33.099Z,11.80
2019-03-28T17:29:02.648Z,11.80
2019-03-28T17:31:32.006Z,11.80
2019-03-28T17:34:01.391Z,11.80
2019-03-28T17:36:30.764Z,11.70
2019-03-28T17:39:00.212Z,11.70
2019-03-28T17:41:29.758Z,11.70
2019-03-28T17:43:59.223Z,11.70
2019-03-28T17:46:28.730Z,11.60
2019-03-28T17:48:58.837Z,11.70
2019-03-28T17:51:29.383Z,11.60
2019-03-28T17:53:58.840Z,11.60
2019-03-28T17:56:28.421Z,11.50
2019-03-28T17:58:58.017Z,11.50
2019-03-28T18:01:27.404Z,11.40
2019-03-28T18:03:57.331Z,11.30
2019-03-28T18:06:26.816Z,11.30
2019-03-28T18:08:56.581Z,11.30
2019-03-28T18:11:26.129Z,11.20
2019-03-28T18:13:55.732Z,11.20
2019-03-28T18:16:25.284Z,11.20
2019-03-28T18:18:54.971Z,11.20
2019-03-28T18:21:24.703Z,11.20
2019-03-28T18:23:54.219Z,11.20
2019-03-28T18:26:25.120Z,11.10
2019-03-28T18:28:56.942Z,11.10
2019-03-28T18:31:26.395Z,11.10
2019-03-28T18:33:55.794Z,11.10
2019-03-28T18:36:25.239Z,11.10
2019-03-28T18:38:54.861Z,11.10
2019-03-28T18:41:24.354Z,11.00
2019-03-28T18:43:53.954Z,11.00
2019-03-28T18:46:23.534Z,11.00
2019-03-28T18:48:53.182Z,10.90
2019-03-28T18:51:22.708Z,10.90
2019-03-28T18:53:52.267Z,11.00
2019-03-28T18:58:52.835Z,10.90
2019-03-28T19:01:22.493Z,10.90
2019-03-28T19:03:52.014Z,10.90
2019-03-28T19:06:21.529Z,10.90
2019-03-28T19:08:51.143Z,10.90
2019-03-28T19:11:20.748Z,10.90
2019-03-28T19:13:50.256Z,10.90
2019-03-28T19:16:21.758Z,10.90
2019-03-28T19:18:51.812Z,10.90
2019-03-28T19:21:21.560Z,11.00
2019-03-28T19:23:51.030Z,11.00
2019-03-28T19:26:20.532Z,11.00
2019-03-28T19:28:52.003Z,10.90
2019-03-28T19:31:43.179Z,10.90
2019-03-28T19:34:13.372Z,10.90
2019-03-28T19:36:45.000Z,10.80
2019-03-28T19:39:19.301Z,10.70
2019-03-28T19:41:48.897Z,10.70
2019-03-28T19:44:18.454Z,10.60
2019-03-28T19:46:48.220Z,10.60
2019-03-28T19:49:17.986Z,10.50
2019-03-28T19:51:47.903Z,10.50
2019-03-28T19:54:17.596Z,10.50
2019-03-28T19:56:47.074Z,10.50
2019-03-28T19:59:16.663Z,10.40
2019-03-28T20:01:46.343Z,10.50
2019-03-28T20:04:16.759Z,10.40
2019-03-28T20:06:46.288Z,10.40
2019-03-28T20:09:16.753Z,10.30
2019-03-28T20:11:47.927Z,10.30
2019-03-28T20:14:17.434Z,10.30
2019-03-28T20:16:46.970Z,10.30
2019-03-28T20:19:18.006Z,10.30
2019-03-28T20:21:47.610Z,10.30
2019-03-28T20:24:17.079Z,10.40
2019-03-28T20:26:46.702Z,10.30
2019-03-28T20:29:16.192Z,10.20
2019-03-28T20:31:45.763Z,10.20
2019-03-28T20:34:15.208Z,10.20
2019-03-28T20:36:53.031Z,10.20
2019-03-28T20:39:43.848Z,10.20
2019-03-28T20:42:13.294Z,10.20
2019-03-28T20:44:42.730Z,10.20
2019-03-28T20:47:12.300Z,10.20
2019-03-28T20:49:41.707Z,10.20
2019-03-28T20:52:13.488Z,10.20
2019-03-28T20:54:42.947Z,10.10
2019-03-28T20:57:12.387Z,10.10
2019-03-28T20:59:41.951Z,10.10
2019-03-28T21:02:11.700Z,10.10
2019-03-28T21:04:41.271Z,10.10
2019-03-28T21:07:10.932Z,10.00
2019-03-28T21:09:40.571Z,10.00
2019-03-28T21:12:10.011Z,10.00
2019-03-28T21:14:39.513Z,10.00
2019-03-28T21:17:08.976Z,10.10
2019-03-28T21:19:38.487Z,10.10
2019-03-28T21:22:07.996Z,10.00
2019-03-28T21:24:37.450Z,10.10
2019-03-28T21:27:07.209Z,10.00
2019-03-28T21:29:48.208Z,10.00
2019-03-28T21:32:07.875Z,9.90
2019-03-28T21:34:37.254Z,9.90
2019-03-28T21:37:06.875Z,9.90
2019-03-28T21:39:36.342Z,9.90
2019-03-28T21:42:07.170Z,9.90
2019-03-28T21:44:36.961Z,9.90
2019-03-28T21:47:06.347Z,9.90
2019-03-28T21:49:35.708Z,9.90
2019-03-28T21:52:07.511Z,9.90
2019-03-28T21:54:36.234Z,9.90
2019-03-28T21:57:05.603Z,9.90
2019-03-28T21:59:34.976Z,9.90
2019-03-28T22:02:04.408Z,9.90
2019-03-28T22:04:34.979Z,9.90
2019-03-28T22:07:04.523Z,9.90
2019-03-28T22:09:34.153Z,9.90
2019-03-28T22:12:03.659Z,9.90
2019-03-28T22:14:33.141Z,9.90
2019-03-28T22:17:02.495Z,10.00
2019-03-28T22:19:32.035Z,9.90
2019-03-28T22:22:02.096Z,9.90
2019-03-28T22:24:31.774Z,9.90
2019-03-28T22:27:01.297Z,9.80
2019-03-28T22:29:30.746Z,9.80
2019-03-28T22:32:00.119Z,9.80
2019-03-28T22:34:29.655Z,9.80
2019-03-28T22:37:00.899Z,9.80
2019-03-28T22:39:30.111Z,9.70
2019-03-28T22:41:59.467Z,9.70
2019-03-28T22:44:28.850Z,9.70
2019-03-28T22:46:58.280Z,9.70
2019-03-28T22:49:27.667Z,9.60
2019-03-28T22:51:57.187Z,9.70
2019-03-28T22:54:26.580Z,9.60
2019-03-28T22:56:56.156Z,9.60
2019-03-28T22:59:26.910Z,9.60
2019-03-28T23:01:56.829Z,9.70
2019-03-28T23:04:26.323Z,9.70
2019-03-28T23:06:55.800Z,9.60
2019-03-28T23:09:25.204Z,9.60
2019-03-28T23:11:54.565Z,9.60
2019-03-28T23:14:23.941Z,9.60
2019-03-28T23:16:53.319Z,9.50
2019-03-28T23:19:22.849Z,9.50
2019-03-28T23:21:52.293Z,9.50
2019-03-28T23:24:21.804Z,9.40
2019-03-28T23:26:51.168Z,9.40
2019-03-28T23:29:20.652Z,9.30
2019-03-28T23:31:50.845Z,9.30
2019-03-28T23:34:20.334Z,9.30
2019-03-28T23:36:49.712Z,9.30
2019-03-28T23:39:19.095Z,9.30
2019-03-28T23:41:48.483Z,9.30
2019-03-28T23:44:17.848Z,9.30
2019-03-28T23:46:47.218Z,9.30
2019-03-28T23:49:16.597Z,9.30
2019-03-28T23:51:46.052Z,9.20
2019-03-28T23:54:15.403Z,9.20
2019-03-28T23:56:44.782Z,9.30
2019-03-28T23:59:14.144Z,9.30
